createdAt,value
2023-08-11T00:16:19.306Z,15.86
2023-08-11T00:36:19.255Z,15.86
2023-08-11T00:56:19.226Z,15.85
2023-08-11T01:16:19.241Z,15.84
2023-08-11T02:56:19.158Z,15.82
2023-08-11T03:16:19.077Z,15.81
2023-08-11T03:36:19.045Z,15.81
2023-08-11T03:56:19.027Z,15.81
2023-08-11T04:36:18.989Z,15.78
2023-08-11T05:16:18.971Z,15.75
2023-08-11T05:36:18.918Z,15.73
2023-08-11T08:56:18.689Z,15.68
2023-08-11T09:16:18.668Z,15.67
2023-08-11T09:36:18.621Z,15.67
2023-08-11T09:56:18.586Z,15.67
2023-08-11T10:16:18.589Z,15.67
2023-08-11T10:36:18.541Z,15.67
2023-08-11T10:56:18.492Z,15.68
2023-08-11T11:36:18.478Z,15.69
2023-08-11T11:56:18.426Z,15.7
2023-08-11T12:16:18.449Z,15.71
2023-08-11T12:36:18.378Z,15.71
2023-08-11T12:56:18.364Z,15.71
2023-08-11T17:16:18.153Z,16.01
2023-08-11T17:36:18.031Z,16.02
2023-08-11T17:56:18.007Z,16.04
2023-08-11T18:16:18.017Z,16.09
2023-08-11T18:36:17.952Z,16.11
2023-08-11T18:56:17.913Z,16.12
2023-08-11T19:16:17.889Z,16.13
2023-08-11T19:36:17.858Z,16.17
2023-08-11T19:56:17.859Z,16.21
2023-08-11T20:16:17.852Z,16.22
2023-08-11T20:36:17.765Z,16.23
2023-08-11T20:56:17.754Z,16.24
2023-08-11T21:16:17.740Z,16.26
2023-08-11T21:36:17.676Z,16.29
2023-08-11T21:56:17.658Z,16.31
2023-08-11T22:16:17.664Z,16.32
2023-08-11T22:36:17.584Z,16.33
2023-08-11T22:56:17.573Z,16.33
2023-08-11T23:16:17.654Z,16.34
2023-08-11T23:36:17.542Z,16.35
2023-08-11T23:56:17.486Z,16.37
